Time;durP1;ratioP1;P1;durP2;ratioP2;P2;SDS_P1;SDS_P2;PMS_P1;PMS_P2;Temp;Humidity;BMP_temperature;BMP_pressure;BME280_temperature;BME280_humidity;BME280_pressure;Samples;Min_cycle;Max_cycle;Signal;HPM_P1;HPM_P2
2023/09/01 04:00:48;;;;;;;2.00;1.20;;;17.40;84.40;;;;;;5894205;23;20349;-70
2023/09/01 04:03:15;;;;;;;3.60;1.30;;;17.50;84.30;;;;;;4916783;29;20468;-69
2023/09/01 04:05:42;;;;;;;1.90;0.97;;;17.50;83.90;;;;;;4916961;29;20968;-70
2023/09/01 04:08:09;;;;;;;1.80;1.00;;;17.60;83.80;;;;;;4916934;29;20490;-69
2023/09/01 04:10:35;;;;;;;2.23;1.10;;;17.50;83.90;;;;;;4917167;29;20449;-69
2023/09/01 04:13:02;;;;;;;2.53;0.90;;;17.50;84.00;;;;;;4917153;29;20440;-70
2023/09/01 04:15:29;;;;;;;1.80;0.90;;;17.30;84.50;;;;;;4917466;29;20954;-69
2023/09/01 04:17:57;;;;;;;3.30;1.20;;;17.30;84.70;;;;;;4916807;29;20508;-69
2023/09/01 04:20:23;;;;;;;2.17;1.03;;;17.40;84.70;;;;;;4917004;29;20448;-70
2023/09/01 04:22:50;;;;;;;2.40;0.93;;;17.20;85.00;;;;;;4917059;29;20449;-69
2023/09/01 04:25:17;;;;;;;2.80;1.07;;;17.30;85.40;;;;;;4917040;29;20453;-70
2023/09/01 04:27:43;;;;;;;1.80;1.10;;;17.30;85.00;;;;;;4916697;29;21025;-69
2023/09/01 04:30:11;;;;;;;2.10;1.10;;;17.30;85.40;;;;;;4916703;29;20868;-69
2023/09/01 04:32:37;;;;;;;1.90;1.10;;;17.40;84.80;;;;;;4916891;29;20469;-70
2023/09/01 04:35:06;;;;;;;2.17;0.90;;;17.30;85.10;;;;;;4916658;29;20477;-69
2023/09/01 04:37:33;;;;;;;2.67;1.10;;;17.30;85.20;;;;;;4916955;29;20449;-70
2023/09/01 04:40:00;;;;;;;2.27;1.10;;;17.30;85.50;;;;;;4916598;29;20997;-69
2023/09/01 04:42:26;;;;;;;2.10;1.30;;;17.30;85.70;;;;;;4916840;29;20477;-70
2023/09/01 04:44:53;;;;;;;1.87;1.00;;;17.40;84.90;;;;;;4916778;29;20544;-70
2023/09/01 04:47:19;;;;;;;1.70;0.80;;;17.50;84.70;;;;;;4916849;29;20457;-69
2023/09/01 04:49:46;;;;;;;3.30;1.37;;;17.50;84.70;;;;;;4916842;29;20453;-69
2023/09/01 04:52:14;;;;;;;1.80;1.00;;;17.40;85.10;;;;;;4916744;29;20472;-69
2023/09/01 04:54:41;;;;;;;1.80;0.80;;;17.40;85.10;;;;;;4916766;29;20445;-70
2023/09/01 04:57:07;;;;;;;2.07;1.10;;;17.30;85.80;;;;;;4916734;29;20452;-69
2023/09/01 04:59:35;;;;;;;1.70;1.07;;;17.30;85.80;;;;;;4916742;29;20445;-69
2023/09/01 05:02:01;;;;;;;2.00;0.80;;;17.30;86.20;;;;;;4916209;29;20540;-70
2023/09/01 05:04:28;;;;;;;1.67;0.80;;;17.40;86.20;;;;;;4916409;29;21009;-69
2023/09/01 05:06:55;;;;;;;1.80;0.90;;;17.40;86.00;;;;;;4916718;29;20461;-69
2023/09/01 05:09:23;;;;;;;2.37;1.10;;;17.50;86.40;;;;;;4916691;29;20472;-69
2023/09/01 05:11:49;;;;;;;1.70;0.90;;;17.40;86.00;;;;;;4916542;29;20460;-70
2023/09/01 05:14:16;;;;;;;1.90;1.20;;;17.50;86.00;;;;;;4916596;29;20448;-70
2023/09/01 05:16:43;;;;;;;1.97;1.03;;;17.50;85.80;;;;;;4919194;29;20456;-69
2023/09/01 05:19:09;;;;;;;2.37;0.90;;;17.50;86.00;;;;;;4920163;29;20507;-70
2023/09/01 05:21:36;;;;;;;2.17;1.00;;;17.50;86.00;;;;;;4920024;29;20465;-70
2023/09/01 05:24:03;;;;;;;3.70;1.00;;;17.50;86.00;;;;;;4920009;29;20521;-69
2023/09/01 05:26:31;;;;;;;2.37;1.00;;;17.50;85.70;;;;;;4920469;29;20444;-69
2023/09/01 05:28:58;;;;;;;2.83;1.00;;;17.50;85.80;;;;;;4920006;29;20459;-70
2023/09/01 05:31:24;;;;;;;2.63;1.00;;;17.60;85.60;;;;;;4919901;29;20528;-70
2023/09/01 05:33:51;;;;;;;1.80;0.90;;;17.60;85.70;;;;;;4919619;29;20953;-70
2023/09/01 05:36:18;;;;;;;2.53;0.90;;;17.50;86.00;;;;;;4919867;29;20875;-69
2023/09/01 05:38:44;;;;;;;2.03;1.00;;;17.50;86.20;;;;;;4919818;29;20475;-70
2023/09/01 05:41:11;;;;;;;1.90;0.90;;;17.60;86.50;;;;;;4919922;29;20841;-70
2023/09/01 05:43:39;;;;;;;1.90;0.90;;;17.60;86.90;;;;;;4919345;29;20891;-69
2023/09/01 05:46:06;;;;;;;2.37;1.00;;;17.60;86.90;;;;;;4919700;29;20448;-70
2023/09/01 05:48:34;;;;;;;2.03;1.00;;;17.50;87.00;;;;;;4919642;29;20508;-70
2023/09/01 05:51:01;;;;;;;1.80;0.90;;;17.50;87.30;;;;;;4919526;29;20475;-70
2023/09/01 05:53:28;;;;;;;2.30;1.07;;;17.40;87.70;;;;;;4919653;29;20499;-69
2023/09/01 05:55:55;;;;;;;1.60;0.80;;;17.50;88.20;;;;;;4920103;29;20540;-70
2023/09/01 05:58:21;;;;;;;1.70;0.90;;;17.50;87.90;;;;;;4919217;29;20946;-70
2023/09/01 06:00:49;;;;;;;2.37;1.00;;;17.50;88.10;;;;;;4919347;29;22324;-70
2023/09/01 06:03:16;;;;;;;2.20;0.97;;;17.40;88.10;;;;;;4919053;29;20992;-69
2023/09/01 06:05:43;;;;;;;1.70;0.97;;;17.50;88.40;;;;;;4919384;29;20512;-69
2023/09/01 06:08:09;;;;;;;1.83;1.00;;;17.50;88.70;;;;;;4919372;29;20502;-70
2023/09/01 06:10:36;;;;;;;2.50;1.00;;;17.40;89.10;;;;;;4919206;29;20520;-70
2023/09/01 06:13:03;;;;;;;1.80;1.00;;;17.40;89.80;;;;;;4918905;29;20861;-70
2023/09/01 06:15:30;;;;;;;1.93;1.10;;;17.50;89.60;;;;;;4919224;29;20448;-70
2023/09/01 06:17:58;;;;;;;1.97;1.13;;;17.20;90.60;;;;;;4919189;29;20448;-69
2023/09/01 06:20:24;;;;;;;2.00;1.10;;;17.30;91.20;;;;;;4919528;29;20449;-70
2023/09/01 06:22:53;;;;;;;1.93;1.03;;;17.10;91.40;;;;;;4919072;29;20452;-69
2023/09/01 06:25:20;;;;;;;2.00;1.20;;;17.20;92.00;;;;;;4918971;29;20568;-70
2023/09/01 06:27:47;;;;;;;1.83;1.00;;;17.30;91.90;;;;;;4918456;29;20497;-70
2023/09/01 06:30:14;;;;;;;2.10;0.90;;;17.30;92.20;;;;;;4918942;29;20457;-70
2023/09/01 06:32:41;;;;;;;2.93;1.30;;;17.30;92.20;;;;;;4918831;29;20469;-70
2023/09/01 06:35:09;;;;;;;1.70;0.90;;;17.30;92.00;;;;;;4918543;29;20938;-70
2023/09/01 06:37:36;;;;;;;1.70;0.90;;;17.40;92.30;;;;;;4918806;29;20496;-70
2023/09/01 06:40:03;;;;;;;1.80;1.00;;;17.40;92.20;;;;;;4918762;29;20509;-70
2023/09/01 06:42:30;;;;;;;1.60;0.80;;;17.60;92.10;;;;;;4918684;29;20468;-70
2023/09/01 06:44:57;;;;;;;2.17;0.90;;;17.60;91.40;;;;;;4919051;29;20493;-70
2023/09/01 06:47:23;;;;;;;2.60;1.00;;;17.60;92.10;;;;;;4918587;29;20471;-70
2023/09/01 06:49:50;;;;;;;1.87;0.93;;;17.60;92.00;;;;;;4918554;29;20463;-69
2023/09/01 06:52:18;;;;;;;1.93;1.07;;;17.60;92.20;;;;;;4918484;29;20477;-69
2023/09/01 06:54:45;;;;;;;2.00;1.10;;;17.60;92.50;;;;;;4918468;29;20445;-70
2023/09/01 06:57:11;;;;;;;1.60;0.90;;;17.60;92.10;;;;;;4918411;29;20449;-70
2023/09/01 06:59:38;;;;;;;1.80;0.93;;;17.60;92.20;;;;;;4918412;29;20453;-69
2023/09/01 07:02:05;;;;;;;2.00;1.00;;;17.50;92.60;;;;;;4918031;29;20525;-70
2023/09/01 07:04:31;;;;;;;1.90;0.90;;;17.50;93.10;;;;;;4918230;29;20488;-68
2023/09/01 07:06:58;;;;;;;1.93;1.00;;;17.60;92.80;;;;;;4918252;29;20445;-67
2023/09/01 07:09:26;;;;;;;2.20;1.00;;;17.60;92.30;;;;;;4918197;29;20448;-67
2023/09/01 07:11:53;;;;;;;1.77;0.87;;;17.60;92.80;;;;;;4918067;29;20879;-68
2023/09/01 07:14:19;;;;;;;1.73;0.90;;;17.70;92.60;;;;;;4918089;29;20444;-68
2023/09/01 07:16:46;;;;;;;1.90;0.87;;;17.80;92.20;;;;;;4918053;29;20499;-68
2023/09/01 07:19:13;;;;;;;2.10;1.00;;;17.70;92.10;;;;;;4918019;29;20448;-67
2023/09/01 07:21:39;;;;;;;1.90;1.17;;;17.80;92.70;;;;;;4917937;29;20476;-67
2023/09/01 07:24:07;;;;;;;2.13;1.13;;;17.90;91.90;;;;;;4917848;29;20532;-67
2023/09/01 07:26:34;;;;;;;2.00;1.00;;;18.00;92.00;;;;;;4917603;29;20877;-68
2023/09/01 07:29:01;;;;;;;1.70;0.80;;;18.00;91.60;;;;;;4917877;29;20456;-67
2023/09/01 07:31:28;;;;;;;1.73;0.87;;;18.00;91.50;;;;;;4917746;29;20892;-67
2023/09/01 07:33:55;;;;;;;1.97;1.13;;;18.10;91.80;;;;;;4917758;29;20457;-67
2023/09/01 07:36:21;;;;;;;1.60;0.80;;;18.20;91.40;;;;;;4917417;29;20448;-68
2023/09/01 07:38:49;;;;;;;1.80;1.10;;;18.20;91.20;;;;;;4916906;29;20531;-67
2023/09/01 07:41:15;;;;;;;1.70;0.93;;;18.20;91.50;;;;;;4917487;29;20475;-68
2023/09/01 07:43:44;;;;;;;1.70;0.90;;;18.30;92.00;;;;;;4917510;29;20821;-68
2023/09/01 07:46:10;;;;;;;1.90;0.87;;;18.30;91.30;;;;;;4917309;29;20937;-67
2023/09/01 07:48:37;;;;;;;1.60;0.93;;;18.40;92.00;;;;;;4917207;29;20862;-68
2023/09/01 07:51:04;;;;;;;1.90;1.03;;;18.40;91.30;;;;;;4917414;29;20468;-68
2023/09/01 07:53:30;;;;;;;2.67;0.90;;;18.70;91.60;;;;;;4917486;29;20453;-68
2023/09/01 07:55:57;;;;;;;2.20;0.93;;;18.90;90.70;;;;;;4917461;29;20441;-68
2023/09/01 07:58:24;;;;;;;2.10;0.90;;;19.20;91.30;;;;;;4917099;29;20968;-68
2023/09/01 08:00:52;;;;;;;2.13;1.10;;;19.20;89.70;;;;;;4917146;29;20508;-68
2023/09/01 08:03:19;;;;;;;1.77;0.90;;;19.30;90.10;;;;;;4917314;29;20500;-68
2023/09/01 08:05:46;;;;;;;1.60;0.80;;;19.40;89.60;;;;;;4917205;29;20492;-68
2023/09/01 08:08:13;;;;;;;1.87;0.83;;;19.60;88.90;;;;;;4917255;29;20448;-68
2023/09/01 08:10:40;;;;;;;1.70;0.80;;;19.70;88.50;;;;;;4917187;29;20499;-68
2023/09/01 08:13:08;;;;;;;1.93;1.03;;;19.70;88.80;;;;;;4917174;29;20448;-68
2023/09/01 08:15:35;;;;;;;1.70;0.70;;;19.70;88.40;;;;;;4917163;29;20453;-68
2023/09/01 08:18:03;;;;;;;1.60;0.80;;;19.80;88.90;;;;;;4917091;29;20449;-68
2023/09/01 08:20:30;;;;;;;2.17;0.90;;;19.70;88.10;;;;;;4917024;29;20460;-67
2023/09/01 08:22:56;;;;;;;1.70;0.80;;;19.50;89.10;;;;;;4916794;29;20950;-68
2023/09/01 08:25:23;;;;;;;1.60;0.80;;;19.60;89.00;;;;;;4916980;29;20906;-68
2023/09/01 08:27:50;;;;;;;1.70;0.80;;;19.60;89.50;;;;;;4916768;29;20973;-67
2023/09/01 08:30:16;;;;;;;1.90;0.80;;;19.60;89.10;;;;;;4916689;29;20963;-68
2023/09/01 08:32:43;;;;;;;1.97;0.80;;;19.70;89.10;;;;;;4916882;29;20473;-67
2023/09/01 08:35:12;;;;;;;1.97;0.90;;;19.70;88.80;;;;;;4917003;29;20472;-68
2023/09/01 08:37:39;;;;;;;1.50;0.70;;;19.70;88.80;;;;;;4917005;29;20531;-68
2023/09/01 08:40:09;;;;;;;1.60;0.80;;;19.90;89.30;;;;;;4916882;29;20452;-68
2023/09/01 08:42:38;;;;;;;1.70;0.87;;;19.90;88.60;;;;;;4917164;29;20515;-68
2023/09/01 08:45:05;;;;;;;1.90;0.80;;;19.90;88.10;;;;;;4916807;29;20535;-68
2023/09/01 08:47:39;;;;;;;1.90;0.70;;;20.00;87.60;;;;;;4916847;29;20833;-68
2023/09/01 08:50:06;;;;;;;2.03;1.03;;;20.00;89.00;;;;;;4918701;29;20440;-67
2023/09/01 08:52:37;;;;;;;1.73;0.80;;;20.00;88.40;;;;;;4920617;29;20477;-68
2023/09/01 08:55:05;;;;;;;2.27;0.80;;;20.10;87.90;;;;;;4920595;29;20433;-68
2023/09/01 08:57:31;;;;;;;2.10;1.10;;;19.90;87.40;;;;;;4920557;29;20455;-68
2023/09/01 08:59:58;;;;;;;2.53;1.00;;;19.90;88.20;;;;;;4920604;29;20448;-68
2023/09/01 09:02:25;;;;;;;1.67;0.77;;;20.00;88.50;;;;;;4920108;29;20480;-68
2023/09/01 09:04:52;;;;;;;2.17;0.90;;;20.10;88.60;;;;;;4920350;29;20488;-68
2023/09/01 09:07:22;;;;;;;1.90;1.00;;;20.30;87.30;;;;;;4920441;29;20448;-68
2023/09/01 09:09:54;;;;;;;2.17;0.90;;;20.50;87.30;;;;;;4920360;29;20444;-68
2023/09/01 09:12:22;;;;;;;1.87;0.90;;;20.80;84.90;;;;;;4920237;29;20469;-68
2023/09/01 09:14:52;;;;;;;1.73;0.90;;;21.10;85.10;;;;;;4919976;29;21005;-68
2023/09/01 09:17:21;;;;;;;2.70;0.90;;;21.40;83.80;;;;;;4920205;29;20448;-68
2023/09/01 09:19:52;;;;;;;2.03;1.00;;;21.70;84.40;;;;;;4919950;29;21010;-68
2023/09/01 09:22:18;;;;;;;2.20;0.90;;;22.00;82.80;;;;;;4919824;29;21061;-68
2023/09/01 09:24:45;;;;;;;1.90;0.93;;;21.90;80.80;;;;;;4919652;29;20912;-68
2023/09/01 09:27:16;;;;;;;1.67;0.80;;;21.80;83.00;;;;;;4919692;29;20846;-68
2023/09/01 09:29:44;;;;;;;1.97;0.90;;;21.60;82.20;;;;;;4920446;29;20460;-69
2023/09/01 09:32:18;;;;;;;1.70;0.80;;;21.70;82.10;;;;;;4920067;29;20469;-70
2023/09/01 09:35:05;;;;;;;1.87;0.90;;;21.50;81.30;;;;;;4919923;29;20444;-70
2023/09/01 09:37:32;;;;;;;2.13;1.43;;;21.50;82.40;;;;;;4920040;29;20473;-70
2023/09/01 09:40:11;;;;;;;1.73;1.00;;;21.50;82.70;;;;;;4919920;29;20464;-70
2023/09/01 09:42:40;;;;;;;1.80;0.90;;;21.40;82.70;;;;;;4919490;29;21016;-70
2023/09/01 09:45:22;;;;;;;1.57;0.80;;;21.60;81.90;;;;;;4919683;29;21005;-70
2023/09/01 09:47:50;;;;;;;2.40;0.80;;;21.60;81.10;;;;;;4919846;29;20475;-70
2023/09/01 09:50:18;;;;;;;2.20;1.20;;;21.50;80.60;;;;;;4919852;29;20543;-70
2023/09/01 09:52:48;;;;;;;1.70;0.90;;;21.40;80.60;;;;;;4919619;29;20826;-71
2023/09/01 09:55:22;;;;;;;1.90;1.00;;;21.30;81.20;;;;;;4920259;29;20451;-70
2023/09/01 09:57:51;;;;;;;2.20;0.80;;;21.40;81.30;;;;;;4919606;29;20428;-70
2023/09/01 10:00:21;;;;;;;1.80;0.80;;;21.30;82.30;;;;;;4919434;29;20453;-70
2023/09/01 10:02:54;;;;;;;1.70;0.87;;;21.40;82.30;;;;;;4918541;29;20515;-70
2023/09/01 10:05:23;;;;;;;2.30;0.90;;;21.30;81.90;;;;;;4919151;29;21196;-70
2023/09/01 10:07:50;;;;;;;1.70;0.80;;;21.30;80.90;;;;;;4919415;29;20516;-70
2023/09/01 10:10:18;;;;;;;2.90;1.07;;;21.30;81.50;;;;;;4919370;29;20448;-70
2023/09/01 10:12:44;;;;;;;1.60;0.83;;;21.30;82.10;;;;;;4919195;29;20469;-70
2023/09/01 10:15:14;;;;;;;2.23;0.80;;;21.40;81.40;;;;;;4919513;29;21006;-70
2023/09/01 10:17:43;;;;;;;1.50;0.70;;;21.40;82.40;;;;;;4919167;29;20452;-70
2023/09/01 10:20:12;;;;;;;2.30;1.00;;;21.50;82.60;;;;;;4919159;29;20500;-70
2023/09/01 10:22:39;;;;;;;1.80;0.90;;;21.60;82.00;;;;;;4919048;29;20472;-70
2023/09/01 10:25:09;;;;;;;1.90;1.10;;;21.70;80.40;;;;;;4918994;29;20512;-70
2023/09/01 10:27:36;;;;;;;1.90;0.80;;;21.50;81.40;;;;;;4919427;29;20977;-70
2023/09/01 10:30:23;;;;;;;1.70;1.00;;;21.40;81.50;;;;;;4919098;29;20806;-70
2023/09/01 10:32:51;;;;;;;1.60;0.80;;;21.40;81.50;;;;;;4919411;29;20448;-70
2023/09/01 10:35:40;;;;;;;1.70;0.80;;;21.50;81.50;;;;;;4919307;29;20482;-70
2023/09/01 10:38:11;;;;;;;2.30;1.20;;;21.70;82.50;;;;;;4919229;29;20447;-70
2023/09/01 10:40:42;;;;;;;1.70;0.83;;;21.80;81.50;;;;;;4919289;29;20452;-70
2023/09/01 10:43:10;;;;;;;1.80;0.93;;;21.80;80.30;;;;;;4918975;29;20460;-70
2023/09/01 10:45:37;;;;;;;2.00;0.90;;;22.00;80.90;;;;;;4918758;29;20495;-70
2023/09/01 10:48:11;;;;;;;1.80;0.80;;;22.10;81.20;;;;;;4918289;29;20872;-70
2023/09/01 10:50:42;;;;;;;1.80;0.90;;;22.30;79.50;;;;;;4918527;29;20546;-70
2023/09/01 10:53:28;;;;;;;1.80;0.80;;;22.30;79.20;;;;;;4918555;29;20433;-70
2023/09/01 10:56:09;;;;;;;1.70;0.80;;;22.40;79.70;;;;;;4918509;29;20536;-70
2023/09/01 10:58:49;;;;;;;2.10;1.07;;;22.50;78.80;;;;;;4918481;29;20884;-71
2023/09/01 11:01:36;;;;;;;1.80;0.80;;;22.50;77.90;;;;;;4917908;29;21027;-70
2023/09/01 11:04:33;;;;;;;1.70;0.93;;;22.40;77.80;;;;;;4918384;29;20433;-70
2023/09/01 11:07:03;;;;;;;1.90;1.07;;;22.40;79.00;;;;;;4918185;29;20477;-70
2023/09/01 11:09:52;;;;;;;1.70;0.90;;;22.40;78.30;;;;;;4918240;29;20511;-70
2023/09/01 11:12:19;;;;;;;1.90;0.97;;;22.30;77.70;;;;;;4918098;29;20468;-71
2023/09/01 11:14:57;;;;;;;1.87;1.07;;;22.50;77.90;;;;;;4917857;29;20518;-70
2023/09/01 11:17:51;;;;;;;2.30;1.03;;;22.60;78.50;;;;;;4918052;29;20448;-70
2023/09/01 11:20:20;;;;;;;1.83;0.90;;;22.60;77.80;;;;;;4918083;29;20422;-70
2023/09/01 11:22:48;;;;;;;2.33;1.10;;;22.90;76.70;;;;;;4918038;29;20451;-70
2023/09/01 11:25:16;;;;;;;1.90;0.73;;;23.10;75.00;;;;;;4917882;29;20859;-70
2023/09/01 11:27:49;;;;;;;2.00;1.00;;;23.20;73.80;;;;;;4917586;29;20947;-70
2023/09/01 11:30:18;;;;;;;1.73;0.90;;;23.20;75.30;;;;;;4917967;29;20432;-70
2023/09/01 11:32:44;;;;;;;2.00;0.97;;;23.10;74.60;;;;;;4917737;29;20468;-70
2023/09/01 11:35:23;;;;;;;1.87;0.90;;;23.20;75.50;;;;;;4917795;29;20505;-70
2023/09/01 11:37:49;;;;;;;1.50;0.77;;;23.40;73.00;;;;;;4917823;29;20524;-70
2023/09/01 11:40:17;;;;;;;1.70;0.80;;;23.40;73.50;;;;;;4917721;29;20448;-70
2023/09/01 11:42:45;;;;;;;1.90;0.90;;;23.70;71.90;;;;;;4917594;29;20876;-70
2023/09/01 11:45:12;;;;;;;1.80;0.83;;;23.90;70.80;;;;;;4917556;29;20500;-70
2023/09/01 11:47:39;;;;;;;1.80;1.00;;;23.80;70.20;;;;;;4917593;29;20455;-70
2023/09/01 11:50:06;;;;;;;2.17;1.00;;;23.80;71.80;;;;;;4917582;29;20445;-70
2023/09/01 11:52:50;;;;;;;1.63;0.83;;;23.60;70.00;;;;;;4917483;29;20572;-71
2023/09/01 11:55:29;;;;;;;1.50;0.70;;;23.60;71.30;;;;;;4917476;29;20441;-70
2023/09/01 11:57:56;;;;;;;1.70;0.70;;;23.60;71.00;;;;;;4917471;29;20421;-70
2023/09/01 12:00:29;;;;;;;1.60;0.80;;;23.80;69.90;;;;;;4917358;29;20449;-70
2023/09/01 12:02:56;;;;;;;1.60;0.70;;;24.20;69.20;;;;;;4917417;29;20425;-70
2023/09/01 12:05:28;;;;;;;1.50;0.77;;;24.40;69.40;;;;;;4917241;29;20488;-70
2023/09/01 12:07:57;;;;;;;1.83;0.87;;;24.40;69.70;;;;;;4917875;29;20434;-70
2023/09/01 12:10:24;;;;;;;2.20;1.10;;;24.60;68.70;;;;;;4917134;29;20474;-70
2023/09/01 12:12:50;;;;;;;1.60;0.70;;;24.80;68.00;;;;;;4916922;29;20862;-70
2023/09/01 12:15:17;;;;;;;1.70;0.80;;;25.00;70.20;;;;;;4916887;29;20853;-70
2023/09/01 12:17:44;;;;;;;1.50;0.70;;;25.10;65.70;;;;;;4917187;29;20526;-70
2023/09/01 12:20:10;;;;;;;1.70;0.90;;;25.20;67.50;;;;;;4917126;29;20449;-70
2023/09/01 12:22:37;;;;;;;1.77;0.80;;;25.20;67.00;;;;;;4917039;29;20468;-71
2023/09/01 12:25:06;;;;;;;1.70;0.70;;;25.40;68.50;;;;;;4916626;29;20452;-70
2023/09/01 12:27:32;;;;;;;1.60;0.90;;;25.50;64.90;;;;;;4916977;29;20483;-71
2023/09/01 12:29:59;;;;;;;1.80;0.93;;;25.40;65.70;;;;;;4917053;29;20841;-70
2023/09/01 12:32:28;;;;;;;2.70;0.90;;;25.40;65.80;;;;;;4916633;29;20896;-70
2023/09/01 12:34:55;;;;;;;1.70;0.90;;;25.50;66.20;;;;;;4916997;29;20455;-71
2023/09/01 12:37:22;;;;;;;1.70;1.00;;;25.20;65.60;;;;;;4917036;29;20449;-70
2023/09/01 12:39:48;;;;;;;1.60;0.80;;;25.00;66.40;;;;;;4916964;29;20449;-70
2023/09/01 12:42:16;;;;;;;1.80;0.80;;;24.70;66.40;;;;;;4916868;29;20479;-70
2023/09/01 12:44:43;;;;;;;1.70;0.87;;;24.60;67.00;;;;;;4916940;29;20444;-70
2023/09/01 12:47:10;;;;;;;1.73;0.80;;;24.60;67.60;;;;;;4916832;29;20480;-70
2023/09/01 12:49:37;;;;;;;1.77;0.80;;;24.50;68.50;;;;;;4916886;29;20451;-70
2023/09/01 12:52:04;;;;;;;1.90;0.83;;;24.60;68.20;;;;;;4916864;29;20551;-70
2023/09/01 12:54:30;;;;;;;1.60;0.77;;;24.60;68.30;;;;;;4916839;29;20456;-70
2023/09/01 12:56:57;;;;;;;1.70;0.90;;;24.80;69.10;;;;;;4916780;29;20441;-70
2023/09/01 12:59:25;;;;;;;1.50;0.60;;;24.80;67.00;;;;;;4916777;29;20570;-71
2023/09/01 13:01:52;;;;;;;1.80;0.73;;;24.90;67.10;;;;;;4916411;29;20548;-70
2023/09/01 13:04:18;;;;;;;2.23;0.93;;;25.00;67.70;;;;;;4916739;29;20456;-70
2023/09/01 13:06:45;;;;;;;2.00;0.97;;;25.30;66.90;;;;;;4916613;29;20480;-70
2023/09/01 13:09:12;;;;;;;2.10;0.80;;;25.20;67.50;;;;;;4916694;29;20449;-70
2023/09/01 13:11:38;;;;;;;1.70;0.80;;;25.20;66.40;;;;;;4916608;29;20476;-69
2023/09/01 13:14:05;;;;;;;1.60;0.90;;;25.20;66.10;;;;;;4916644;29;20449;-68
2023/09/01 13:16:33;;;;;;;2.57;1.00;;;25.40;66.20;;;;;;4916632;29;20441;-68
2023/09/01 13:19:00;;;;;;;3.27;1.13;;;25.70;65.30;;;;;;4916614;29;20445;-68
2023/09/01 13:21:26;;;;;;;1.57;0.70;;;26.00;64.60;;;;;;4916537;29;20476;-68
2023/09/01 13:23:53;;;;;;;1.50;0.73;;;26.20;64.40;;;;;;4916597;29;20456;-68
2023/09/01 13:26:20;;;;;;;1.73;0.87;;;26.40;64.10;;;;;;4916455;29;20485;-68
2023/09/01 13:28:48;;;;;;;1.60;0.80;;;26.70;64.40;;;;;;4916489;29;20448;-68
2023/09/01 13:31:15;;;;;;;1.60;0.87;;;26.90;64.10;;;;;;4916436;29;20473;-68
2023/09/01 13:33:43;;;;;;;1.80;0.87;;;26.90;63.30;;;;;;4916399;29;20509;-68
2023/09/01 13:36:10;;;;;;;1.60;0.80;;;26.90;61.70;;;;;;4916781;29;20453;-69
2023/09/01 13:38:37;;;;;;;1.80;0.80;;;26.90;62.00;;;;;;4919976;29;20448;-69
2023/09/01 13:41:07;;;;;;;1.40;0.70;;;26.70;62.20;;;;;;4919788;29;20465;-68
2023/09/01 13:43:34;;;;;;;1.73;1.10;;;26.60;62.30;;;;;;4919501;29;20459;-69
2023/09/01 13:46:22;;;;;;;1.93;0.90;;;26.30;62.80;;;;;;4919679;29;20483;-68
2023/09/01 13:48:55;;;;;;;1.87;1.00;;;26.10;63.20;;;;;;4919758;29;20432;-68
2023/09/01 13:51:23;;;;;;;1.60;0.80;;;26.10;64.40;;;;;;4919628;29;20464;-68
2023/09/01 13:53:49;;;;;;;1.60;0.90;;;26.30;64.00;;;;;;4919716;29;20472;-68
2023/09/01 13:56:16;;;;;;;1.50;0.80;;;26.70;63.40;;;;;;4919542;29;20504;-68
2023/09/01 13:58:43;;;;;;;1.60;0.80;;;27.00;61.40;;;;;;4919600;29;20571;-68
2023/09/01 14:01:10;;;;;;;1.77;0.90;;;26.80;61.90;;;;;;4919245;29;20481;-68
2023/09/01 14:03:38;;;;;;;2.00;0.90;;;26.60;62.60;;;;;;4919166;29;20786;-68
2023/09/01 14:06:07;;;;;;;1.90;1.00;;;26.20;63.10;;;;;;4919218;29;20484;-69
2023/09/01 14:08:34;;;;;;;1.90;0.90;;;25.90;64.00;;;;;;4919279;29;20448;-68
2023/09/01 14:11:02;;;;;;;1.53;0.80;;;25.60;64.10;;;;;;4919237;29;20473;-68
2023/09/01 14:13:29;;;;;;;1.80;0.70;;;25.30;64.90;;;;;;4919256;29;20449;-68
2023/09/01 14:15:57;;;;;;;1.70;1.10;;;25.30;65.90;;;;;;4918948;29;20856;-68
2023/09/01 14:18:25;;;;;;;1.60;0.90;;;25.30;65.80;;;;;;4918911;29;20927;-68
2023/09/01 14:20:56;;;;;;;1.40;0.70;;;25.50;65.60;;;;;;4918792;29;21034;-68
2023/09/01 14:23:25;;;;;;;1.60;0.87;;;26.00;66.10;;;;;;4919161;29;20493;-68
2023/09/01 14:25:53;;;;;;;2.00;1.03;;;26.50;63.70;;;;;;4918952;29;20449;-70
2023/09/01 14:28:20;;;;;;;2.60;0.90;;;26.80;64.40;;;;;;4918692;29;20965;-68
2023/09/01 14:30:47;;;;;;;1.80;0.90;;;27.20;61.30;;;;;;4918639;29;20994;-68
2023/09/01 14:33:14;;;;;;;1.60;0.90;;;27.40;60.90;;;;;;4918733;29;20509;-68
2023/09/01 14:35:41;;;;;;;2.10;0.90;;;27.80;60.50;;;;;;4919705;29;20475;-68
2023/09/01 14:38:08;;;;;;;1.90;0.90;;;28.30;59.40;;;;;;4918812;29;20445;-68
2023/09/01 14:40:39;;;;;;;1.60;0.70;;;28.70;57.40;;;;;;4918711;29;20521;-69
2023/09/01 14:43:05;;;;;;;1.57;0.83;;;29.30;57.80;;;;;;4918838;29;20528;-68
2023/09/01 14:45:34;;;;;;;3.80;1.00;;;29.50;55.50;;;;;;4918741;29;20452;-69
2023/09/01 14:48:01;;;;;;;1.50;0.70;;;29.50;55.60;;;;;;4918229;29;20484;-69
2023/09/01 14:50:28;;;;;;;1.60;0.90;;;29.90;53.40;;;;;;4918566;29;20487;-69
2023/09/01 14:52:55;;;;;;;2.07;0.90;;;30.40;52.60;;;;;;4918567;29;20460;-68
2023/09/01 14:55:22;;;;;;;1.77;0.90;;;31.50;51.60;;;;;;4918473;29;20523;-68
2023/09/01 14:57:50;;;;;;;1.60;0.73;;;32.10;49.40;;;;;;4918535;29;20444;-68
2023/09/01 15:00:17;;;;;;;2.30;0.97;;;32.70;48.60;;;;;;4918439;29;20449;-69
2023/09/01 15:02:44;;;;;;;1.40;0.80;;;33.80;46.30;;;;;;4917910;29;20484;-68
2023/09/01 15:05:12;;;;;;;1.53;0.80;;;33.90;45.90;;;;;;4918328;29;20453;-69
2023/09/01 15:07:38;;;;;;;1.60;0.70;;;33.90;46.20;;;;;;4917918;29;20484;-69
2023/09/01 15:10:06;;;;;;;2.47;1.00;;;33.60;47.00;;;;;;4918229;29;20444;-69
2023/09/01 15:12:32;;;;;;;1.73;0.83;;;32.70;47.50;;;;;;4918199;29;20465;-68
2023/09/01 15:15:00;;;;;;;1.63;0.80;;;31.50;49.80;;;;;;4918193;29;20452;-68
2023/09/01 15:17:27;;;;;;;1.90;0.90;;;30.70;52.40;;;;;;4918103;29;20449;-68
2023/09/01 15:19:54;;;;;;;2.30;0.87;;;29.60;52.80;;;;;;4918055;29;20504;-69
2023/09/01 15:22:20;;;;;;;1.50;0.80;;;28.70;55.20;;;;;;4917975;29;20465;-68
2023/09/01 15:24:47;;;;;;;1.60;0.80;;;28.00;56.00;;;;;;4918229;29;20453;-70
2023/09/01 15:27:14;;;;;;;1.70;0.90;;;27.50;58.00;;;;;;4917726;29;21049;-70
2023/09/01 15:29:41;;;;;;;1.80;1.07;;;27.10;59.10;;;;;;4918457;29;20461;-69
2023/09/01 15:32:09;;;;;;;1.40;0.70;;;26.70;60.10;;;;;;4917786;29;20485;-70
2023/09/01 15:34:37;;;;;;;1.90;1.00;;;26.60;61.20;;;;;;4917863;29;20891;-69
2023/09/01 15:37:04;;;;;;;2.00;0.90;;;26.60;62.10;;;;;;4917961;29;20449;-69
2023/09/01 15:39:33;;;;;;;1.60;0.83;;;26.60;62.50;;;;;;4917883;29;20467;-70
2023/09/01 15:42:00;;;;;;;1.70;0.80;;;26.70;61.50;;;;;;4917477;29;21015;-70
2023/09/01 15:44:26;;;;;;;2.27;1.00;;;26.70;61.50;;;;;;4917364;29;20453;-69
2023/09/01 15:46:53;;;;;;;2.00;0.87;;;26.60;61.80;;;;;;4917504;29;20480;-69
2023/09/01 15:49:21;;;;;;;1.80;1.00;;;26.50;62.00;;;;;;4917571;29;20445;-69
2023/09/01 15:51:48;;;;;;;1.87;0.90;;;26.40;62.60;;;;;;4917497;29;20521;-69
2023/09/01 15:54:14;;;;;;;3.37;1.10;;;26.20;62.20;;;;;;4917441;29;20484;-69
2023/09/01 15:56:41;;;;;;;2.20;1.10;;;26.00;63.10;;;;;;4917458;29;20451;-69
2023/09/01 15:59:08;;;;;;;1.90;0.93;;;25.90;63.90;;;;;;4916774;29;20453;-69
2023/09/01 16:01:34;;;;;;;1.80;1.00;;;25.80;64.70;;;;;;4917096;29;20540;-70
2023/09/01 16:04:03;;;;;;;2.30;1.00;;;25.60;64.90;;;;;;4917324;29;20455;-69
2023/09/01 16:06:33;;;;;;;3.50;1.07;;;25.50;65.50;;;;;;4917266;29;20460;-69
2023/09/01 16:08:59;;;;;;;2.07;1.27;;;25.50;65.70;;;;;;4917809;29;20453;-70
2023/09/01 16:11:26;;;;;;;1.67;0.90;;;25.40;65.80;;;;;;4917189;29;20504;-70
2023/09/01 16:13:53;;;;;;;2.20;1.00;;;25.40;66.20;;;;;;4917219;29;20452;-70
2023/09/01 16:16:20;;;;;;;1.90;0.90;;;25.30;66.30;;;;;;4932772;23;20899;-77
2023/09/01 16:18:46;;;;;;;1.90;0.93;;;25.30;66.70;;;;;;4917170;29;20444;-77
2023/09/01 16:21:13;;;;;;;2.93;1.00;;;25.30;66.90;;;;;;4917878;29;20449;-77
2023/09/01 16:23:42;;;;;;;1.67;0.80;;;25.30;66.30;;;;;;4917359;29;20452;-76
2023/09/01 16:26:09;;;;;;;1.70;0.90;;;25.30;66.60;;;;;;4917012;29;20469;-77
2023/09/01 16:28:36;;;;;;;1.63;0.80;;;25.30;66.80;;;;;;4916956;29;20544;-77
2023/09/01 16:31:03;;;;;;;1.80;1.00;;;25.40;66.40;;;;;;4917044;29;20452;-77
2023/09/01 16:33:29;;;;;;;2.60;1.00;;;25.40;66.50;;;;;;4916961;29;20452;-77
2023/09/01 16:35:57;;;;;;;1.83;0.97;;;25.40;66.80;;;;;;4916898;29;20464;-77
2023/09/01 16:38:27;;;;;;;1.60;1.00;;;25.50;66.80;;;;;;4916989;29;20449;-77
2023/09/01 16:40:57;;;;;;;1.50;0.70;;;25.50;66.50;;;;;;4917035;29;20445;-77
2023/09/01 16:43:24;;;;;;;1.80;0.90;;;25.50;66.20;;;;;;4916916;29;20452;-76
2023/09/01 16:45:51;;;;;;;1.60;0.80;;;25.40;67.30;;;;;;4916846;29;20471;-77
2023/09/01 16:48:18;;;;;;;1.57;0.87;;;25.40;66.70;;;;;;4916813;29;20492;-76
2023/09/01 16:50:45;;;;;;;1.80;0.80;;;25.30;66.80;;;;;;4916606;29;20453;-76
2023/09/01 16:53:13;;;;;;;1.60;0.90;;;25.30;67.10;;;;;;4916870;29;20464;-76